createdAt,value
2022-09-20T00:02:10.008Z,101348.19
2022-09-20T00:04:40.111Z,101342.94
2022-09-20T00:07:10.064Z,101336.69
2022-09-20T00:09:42.082Z,101334.59
2022-09-20T00:12:12.062Z,101343.38
2022-09-20T00:14:42.153Z,101345.78
2022-09-20T00:17:13.916Z,101336.03
2022-09-20T00:19:44.045Z,101343.97
2022-09-20T00:22:14.331Z,101340.38
2022-09-20T00:24:48.774Z,101342.75
2022-09-20T00:27:19.053Z,101339.38
2022-09-20T00:29:49.333Z,101340.28
2022-09-20T00:32:19.688Z,101339.34
2022-09-20T00:35:07.620Z,101347.44
2022-09-20T00:37:40.460Z,101345.31
2022-09-20T00:40:16.231Z,101349.72
2022-09-20T00:42:46.389Z,101344.63
2022-09-20T00:45:28.750Z,101344.16
2022-09-20T00:48:08.253Z,101343.03
2022-09-20T00:51:19.522Z,101343.53
2022-09-20T00:53:50.925Z,101338.69
2022-09-20T00:56:32.711Z,101343.13
2022-09-20T00:59:03.049Z,101337.59
2022-09-20T01:01:33.274Z,101340.16
2022-09-20T01:04:04.698Z,101336.50
2022-09-20T01:06:36.265Z,101335.38
2022-09-20T01:09:09.020Z,101331.69
2022-09-20T01:11:41.192Z,101333.38
2022-09-20T01:14:11.918Z,101338.44
2022-09-20T01:16:42.362Z,101337.88
2022-09-20T01:19:36.950Z,101341.00
2022-09-20T01:22:16.705Z,101353.44
2022-09-20T01:24:57.076Z,101353.06
2022-09-20T01:27:48.866Z,101343.22
2022-09-20T01:30:45.720Z,101351.50
2022-09-20T01:33:40.106Z,101357.31
2022-09-20T01:36:20.425Z,101356.94
2022-09-20T01:39:20.992Z,101361.72
2022-09-20T01:42:03.856Z,101365.91
2022-09-20T01:45:04.290Z,101372.78
2022-09-20T01:47:40.440Z,101369.94
2022-09-20T01:50:31.864Z,101366.22
2022-09-20T01:53:25.963Z,101356.72
2022-09-20T01:56:28.451Z,101355.31
2022-09-20T01:59:19.715Z,101355.31
2022-09-20T02:02:08.101Z,101343.56
2022-09-20T02:05:11.339Z,101334.88
2022-09-20T02:07:58.837Z,101334.50
2022-09-20T02:10:44.801Z,101329.75
2022-09-20T02:13:14.114Z,101330.41
2022-09-20T02:16:25.199Z,101320.66
2022-09-20T02:19:33.006Z,101325.19
2022-09-20T02:22:27.699Z,101322.09
2022-09-20T02:25:14.714Z,101312.59
2022-09-20T02:28:29.649Z,101308.66
2022-09-20T02:31:28.186Z,101303.28
2022-09-20T02:34:39.115Z,101304.50
2022-09-20T02:37:41.916Z,101302.41
2022-09-20T02:40:21.354Z,101288.94
2022-09-20T02:43:04.559Z,101285.59
2022-09-20T02:45:46.498Z,101281.88
2022-09-20T02:48:22.754Z,101279.38
2022-09-20T02:51:05.853Z,101274.78
2022-09-20T02:53:42.017Z,101263.59
2022-09-20T02:56:21.439Z,101269.38
2022-09-20T02:59:06.384Z,101259.25
2022-09-20T03:01:45.416Z,101259.44
2022-09-20T03:04:34.078Z,101260.44
2022-09-20T03:07:20.900Z,101251.69
2022-09-20T03:10:12.853Z,101245.66
2022-09-20T03:13:40.711Z,101246.06
2022-09-20T03:16:51.399Z,101241.88
2022-09-20T03:19:22.832Z,101235.25
2022-09-20T03:22:19.547Z,101232.72
2022-09-20T03:25:11.177Z,101228.56
2022-09-20T03:28:10.575Z,101227.13
2022-09-20T03:31:01.764Z,101203.94
2022-09-20T03:34:08.741Z,101197.94
2022-09-20T03:37:07.090Z,101195.03
2022-09-20T03:40:13.575Z,101185.09
2022-09-20T03:42:53.587Z,101169.75
2022-09-20T03:45:33.839Z,101163.94
2022-09-20T03:48:38.874Z,101163.28
2022-09-20T03:51:24.977Z,101162.44
2022-09-20T03:54:36.115Z,101153.75
2022-09-20T03:57:41.045Z,101145.69
2022-09-20T04:00:28.871Z,101140.09
2022-09-20T04:03:43.122Z,101145.25
2022-09-20T04:06:26.138Z,101131.56
2022-09-20T04:09:32.632Z,101126.34
2022-09-20T04:12:05.855Z,101120.75
2022-09-20T04:15:05.718Z,101116.97
2022-09-20T04:18:05.654Z,101120.91
2022-09-20T04:20:49.625Z,101115.50
2022-09-20T04:23:54.275Z,101111.53
2022-09-20T04:26:34.093Z,101099.50
2022-09-20T04:29:36.410Z,101101.97
2022-09-20T04:32:21.434Z,101098.81
2022-09-20T04:35:34.540Z,101099.41
2022-09-20T04:38:08.556Z,101092.84
2022-09-20T04:41:00.880Z,101084.53
2022-09-20T04:43:36.669Z,101087.19
2022-09-20T04:46:34.529Z,101083.22
2022-09-20T04:49:42.299Z,101064.97
2022-09-20T04:52:39.418Z,101056.22
2022-09-20T04:55:38.154Z,101052.22
2022-09-20T04:58:29.512Z,101045.81
2022-09-20T05:01:18.236Z,101052.84
2022-09-20T05:03:54.903Z,101029.78
2022-09-20T05:06:48.389Z,101037.66
2022-09-20T05:09:52.316Z,101026.16
2022-09-20T05:13:07.188Z,101017.63
2022-09-20T05:15:40.531Z,101012.63
2022-09-20T05:18:20.872Z,101014.28
2022-09-20T05:20:58.053Z,101007.38
2022-09-20T05:23:52.339Z,101009.38
2022-09-20T05:27:00.090Z,101006.25
2022-09-20T05:29:47.922Z,100994.97
2022-09-20T05:32:49.896Z,100991.00
2022-09-20T05:35:50.919Z,100980.22
2022-09-20T05:39:14.400Z,100976.47
2022-09-20T05:42:03.496Z,100964.63
2022-09-20T05:44:51.842Z,100955.88
2022-09-20T05:47:33.871Z,100953.75
2022-09-20T05:50:30.938Z,100950.56
2022-09-20T05:53:41.616Z,100936.66
2022-09-20T05:56:55.972Z,100944.28
2022-09-20T05:59:39.806Z,100938.06
2022-09-20T06:02:34.580Z,100934.47
2022-09-20T06:05:19.876Z,100923.44
2022-09-20T06:08:15.626Z,100916.50
2022-09-20T06:11:12.554Z,100911.75
2022-09-20T06:14:05.312Z,100899.88
2022-09-20T06:16:49.288Z,100901.53
2022-09-20T06:19:52.341Z,100897.53
2022-09-20T06:22:31.583Z,100898.97
2022-09-20T06:25:24.480Z,100898.22
2022-09-20T06:28:01.074Z,100891.78
2022-09-20T06:30:39.628Z,100877.00
2022-09-20T06:33:12.571Z,100885.66
2022-09-20T06:36:22.673Z,100873.38
2022-09-20T06:39:16.678Z,100874.75
2022-09-20T06:41:47.551Z,100874.53
2022-09-20T06:44:17.833Z,100865.75
2022-09-20T06:47:01.927Z,100871.47
2022-09-20T06:49:51.409Z,100861.72
2022-09-20T06:53:01.980Z,100873.44
2022-09-20T06:55:42.134Z,100849.28
2022-09-20T06:58:12.179Z,100847.41
2022-09-20T07:00:41.506Z,100841.50
2022-09-20T07:03:14.018Z,100842.13
2022-09-20T07:05:44.130Z,100837.88
2022-09-20T07:08:14.995Z,100840.91
2022-09-20T07:10:45.256Z,100832.59
2022-09-20T07:13:15.194Z,100823.75
2022-09-20T07:15:45.597Z,100823.31
2022-09-20T07:18:15.660Z,100822.03
2022-09-20T07:20:48.597Z,100822.59
2022-09-20T07:23:19.839Z,100820.22
2022-09-20T07:25:50.205Z,100817.06
2022-09-20T07:28:23.594Z,100817.97
2022-09-20T07:30:54.110Z,100818.31
2022-09-20T07:33:26.407Z,100807.84
2022-09-20T07:35:57.578Z,100808.63
2022-09-20T07:38:27.776Z,100800.31
2022-09-20T07:41:03.501Z,100810.38
2022-09-20T07:43:34.280Z,100798.25
2022-09-20T07:46:05.251Z,100795.09
2022-09-20T07:48:38.298Z,100793.28
2022-09-20T07:51:12.280Z,100795.25
2022-09-20T07:53:43.697Z,100793.94
2022-09-20T07:56:16.203Z,100787.81
2022-09-20T07:58:50.012Z,100782.16
2022-09-20T08:01:23.985Z,100783.56
2022-09-20T08:03:54.279Z,100781.69
2022-09-20T08:06:24.633Z,100784.13
2022-09-20T08:08:55.881Z,100785.19
2022-09-20T08:11:29.937Z,100777.09
2022-09-20T08:14:09.437Z,100780.59
2022-09-20T08:16:43.111Z,100781.41
2022-09-20T08:19:22.639Z,100778.16
2022-09-20T08:21:57.155Z,100776.75
2022-09-20T08:24:30.843Z,100775.94
2022-09-20T08:27:01.261Z,100772.41
2022-09-20T08:29:34.539Z,100766.19
2022-09-20T08:32:05.102Z,100778.38
2022-09-20T08:34:36.354Z,100768.09
2022-09-20T08:37:07.051Z,100770.72
2022-09-20T08:42:42.035Z,100768.72
2022-09-20T08:45:22.705Z,100775.69
2022-09-20T08:48:08.851Z,100772.66
2022-09-20T08:50:39.909Z,100770.91
2022-09-20T08:53:21.419Z,100776.56
2022-09-20T08:55:52.092Z,100768.59
2022-09-20T08:58:23.274Z,100768.78
2022-09-20T09:00:53.827Z,100775.94
2022-09-20T09:03:24.901Z,100782.09
2022-09-20T09:06:02.697Z,100779.28
2022-09-20T09:08:41.022Z,100789.16
2022-09-20T09:11:16.829Z,100782.56
2022-09-20T09:14:33.588Z,100774.66
2022-09-20T09:17:03.645Z,100784.25
2022-09-20T09:19:45.531Z,100784.72
2022-09-20T09:22:43.610Z,100781.97
2022-09-20T09:25:18.173Z,100786.19
2022-09-20T09:28:29.031Z,100781.75
2022-09-20T09:31:17.184Z,100787.84
2022-09-20T09:33:48.272Z,100777.75
2022-09-20T09:36:27.648Z,100782.81
2022-09-20T09:39:32.271Z,100785.44
2022-09-20T09:42:20.869Z,100786.34
2022-09-20T09:44:51.708Z,100792.09
2022-09-20T09:47:40.087Z,100791.97
2022-09-20T09:50:29.100Z,100793.97
2022-09-20T09:53:21.978Z,100793.25
2022-09-20T09:56:13.916Z,100802.31
2022-09-20T09:59:15.532Z,100799.13
2022-09-20T10:02:21.225Z,100795.16
2022-09-20T10:05:08.080Z,100801.91
2022-09-20T10:07:46.666Z,100803.09
2022-09-20T10:10:53.598Z,100800.72
2022-09-20T10:13:35.012Z,100799.19
2022-09-20T10:16:33.975Z,100802.75
2022-09-20T10:19:45.190Z,100806.63
2022-09-20T10:22:30.552Z,100803.44
2022-09-20T10:25:18.909Z,100809.72
2022-09-20T10:28:07.012Z,100802.19
2022-09-20T10:30:49.424Z,100810.34
2022-09-20T10:33:51.004Z,100815.00
2022-09-20T10:36:48.659Z,100816.53
2022-09-20T10:39:41.156Z,100816.00
2022-09-20T10:42:50.427Z,100815.03
2022-09-20T10:46:03.356Z,100822.59
2022-09-20T10:48:42.585Z,100815.38
2022-09-20T10:52:09.817Z,100818.63
2022-09-20T10:55:06.549Z,100824.28
2022-09-20T10:57:58.851Z,100830.16
2022-09-20T11:00:50.303Z,100829.19
2022-09-20T11:03:47.230Z,100835.91
2022-09-20T11:06:53.500Z,100844.44
2022-09-20T11:09:29.132Z,100835.41
2022-09-20T11:12:19.761Z,100841.44
2022-09-20T11:15:16.783Z,100844.78
2022-09-20T11:18:24.677Z,100846.72
2022-09-20T11:21:19.078Z,100849.19
2022-09-20T11:24:25.463Z,100852.16
2022-09-20T11:27:06.467Z,100851.38
2022-09-20T11:29:43.609Z,100855.97
2022-09-20T11:32:20.958Z,100864.25
2022-09-20T11:34:55.115Z,100863.84
2022-09-20T11:37:31.802Z,100859.34
2022-09-20T11:40:37.265Z,100859.22
2022-09-20T11:43:12.818Z,100859.88
2022-09-20T11:45:45.348Z,100864.91
2022-09-20T11:48:30.890Z,100867.78
2022-09-20T11:51:07.561Z,100869.63
2022-09-20T11:53:58.711Z,100869.22
2022-09-20T11:56:35.173Z,100874.41
2022-09-20T11:59:09.519Z,100874.84
2022-09-20T12:01:47.653Z,100876.91
2022-09-20T12:04:33.715Z,100874.84
2022-09-20T12:07:14.445Z,100876.94
2022-09-20T12:10:12.065Z,100879.81
2022-09-20T12:12:53.412Z,100886.00
2022-09-20T12:15:28.773Z,100885.41
2022-09-20T12:17:59.087Z,100873.47
2022-09-20T12:20:43.687Z,100876.97
2022-09-20T12:23:41.238Z,100880.91
2022-09-20T12:26:14.929Z,100880.31
2022-09-20T12:28:52.775Z,100884.06
2022-09-20T12:31:34.762Z,100884.06
2022-09-20T12:34:17.486Z,100879.91
2022-09-20T12:36:54.744Z,100881.97
2022-09-20T12:39:32.576Z,100883.44
2022-09-20T12:42:03.682Z,100881.78
2022-09-20T12:44:48.805Z,100888.19
2022-09-20T12:47:26.400Z,100890.25
2022-09-20T12:50:20.444Z,100886.31
2022-09-20T12:52:59.361Z,100883.44
2022-09-20T12:55:35.007Z,100885.88
2022-09-20T12:58:17.033Z,100880.94
2022-09-20T13:00:48.633Z,100884.03
2022-09-20T13:03:30.381Z,100888.16
2022-09-20T13:06:14.394Z,100889.19
2022-09-20T13:09:02.891Z,100888.97
2022-09-20T13:11:43.521Z,100893.50
2022-09-20T13:14:16.273Z,100897.41
2022-09-20T13:16:55.682Z,100895.72
2022-09-20T13:19:30.696Z,100895.75
2022-09-20T13:22:11.223Z,100896.53
2022-09-20T13:24:47.326Z,100897.75
2022-09-20T13:27:37.936Z,100887.63
2022-09-20T13:30:24.767Z,100898.97
2022-09-20T13:32:56.523Z,100890.91
2022-09-20T13:35:33.053Z,100896.03
2022-09-20T13:38:08.915Z,100896.44
2022-09-20T13:40:41.878Z,100884.66
2022-09-20T13:43:39.115Z,100887.09
2022-09-20T13:46:25.966Z,100891.22
2022-09-20T13:49:25.130Z,100887.25
2022-09-20T13:51:54.656Z,100887.88
2022-09-20T13:54:35.374Z,100884.34
2022-09-20T13:57:13.562Z,100897.28
2022-09-20T13:59:47.824Z,100889.41
2022-09-20T14:02:32.947Z,100885.88
2022-09-20T14:05:07.596Z,100878.63
2022-09-20T14:07:38.253Z,100886.03
2022-09-20T14:10:29.427Z,100881.25
2022-09-20T14:13:04.427Z,100875.91
2022-09-20T14:15:47.808Z,100865.59
2022-09-20T14:18:23.599Z,100877.47
2022-09-20T14:20:56.876Z,100879.34
2022-09-20T14:23:31.459Z,100879.34
2022-09-20T14:26:23.654Z,100867.00
2022-09-20T14:28:55.103Z,100871.06
2022-09-20T14:31:34.992Z,100877.66
2022-09-20T14:34:07.209Z,100879.69
2022-09-20T14:36:38.092Z,100881.28
2022-09-20T14:39:20.642Z,100879.22
2022-09-20T14:41:52.360Z,100878.94
2022-09-20T14:44:35.985Z,100871.09
2022-09-20T14:47:19.046Z,100875.63
2022-09-20T14:49:50.314Z,100884.03
2022-09-20T14:52:34.155Z,100876.38
2022-09-20T14:55:18.214Z,100874.69
2022-09-20T14:57:49.606Z,100870.97
2022-09-20T15:00:22.514Z,100877.69
2022-09-20T15:02:53.524Z,100872.75
2022-09-20T15:05:29.548Z,100874.94
2022-09-20T15:08:01.009Z,100874.13
2022-09-20T15:10:32.281Z,100873.69
2022-09-20T15:13:03.595Z,100872.25
2022-09-20T15:15:37.895Z,100874.47
2022-09-20T15:18:22.873Z,100868.88
2022-09-20T15:20:55.322Z,100874.94
2022-09-20T15:23:27.712Z,100865.94
2022-09-20T15:26:00.262Z,100873.31
2022-09-20T15:28:34.109Z,100883.16
2022-09-20T15:31:06.263Z,100871.66
2022-09-20T15:33:39.590Z,100878.22
2022-09-20T15:36:10.734Z,100873.25
2022-09-20T15:38:46.875Z,100867.91
2022-09-20T15:41:20.164Z,100864.59
2022-09-20T15:43:51.707Z,100869.94
2022-09-20T15:46:30.380Z,100873.25
2022-09-20T15:49:03.956Z,100869.09
2022-09-20T15:51:35.621Z,100870.50
2022-09-20T15:54:09.094Z,100876.63
2022-09-20T15:56:42.704Z,100871.66
2022-09-20T15:59:16.418Z,100871.38
2022-09-20T16:01:49.444Z,100869.72
2022-09-20T16:04:21.623Z,100864.78
2022-09-20T16:06:52.543Z,100870.94
2022-09-20T16:09:22.810Z,100867.81
2022-09-20T16:11:53.342Z,100866.50
2022-09-20T16:14:23.736Z,100864.06
2022-09-20T16:16:58.487Z,100870.09
2022-09-20T16:19:28.856Z,100865.13
2022-09-20T16:22:00.771Z,100866.53
2022-09-20T16:24:34.405Z,100868.09
2022-09-20T16:27:07.593Z,100860.28
2022-09-20T16:29:37.840Z,100868.47
2022-09-20T16:32:08.931Z,100864.81
2022-09-20T16:34:39.163Z,100861.47
2022-09-20T16:37:16.124Z,100857.34
2022-09-20T16:39:46.144Z,100852.19
2022-09-20T16:42:16.630Z,100856.09
2022-09-20T16:44:47.980Z,100855.22
2022-09-20T16:47:26.515Z,100852.97
2022-09-20T16:49:58.610Z,100862.31
2022-09-20T16:52:28.748Z,100855.09
2022-09-20T16:54:58.663Z,100856.09
2022-09-20T16:57:28.602Z,100856.09
2022-09-20T16:59:59.061Z,100855.44
2022-09-20T17:02:29.016Z,100850.66
2022-09-20T17:04:59.016Z,100854.34
2022-09-20T17:07:29.086Z,100852.50
2022-09-20T17:10:02.489Z,100853.50
2022-09-20T17:12:35.200Z,100851.22
2022-09-20T17:15:04.691Z,100850.38
2022-09-20T17:17:35.939Z,100855.91
2022-09-20T17:20:08.216Z,100849.91
2022-09-20T17:22:38.926Z,100847.25
2022-09-20T17:25:09.553Z,100849.84
2022-09-20T17:27:40.592Z,100842.56
2022-09-20T17:30:11.660Z,100844.78
2022-09-20T17:32:45.561Z,100847.00
2022-09-20T17:35:15.981Z,100844.31
2022-09-20T17:37:46.107Z,100847.16
2022-09-20T17:40:16.392Z,100840.19
2022-09-20T17:42:47.884Z,100846.88
2022-09-20T17:45:17.959Z,100842.75
2022-09-20T17:47:48.020Z,100844.41
2022-09-20T17:50:18.283Z,100839.25
2022-09-20T17:52:48.433Z,100839.63
2022-09-20T17:55:18.706Z,100836.97
2022-09-20T17:57:52.714Z,100844.13
2022-09-20T18:00:26.726Z,100836.13
2022-09-20T18:02:58.801Z,100834.66
2022-09-20T18:05:31.752Z,100839.00
2022-09-20T18:08:02.340Z,100835.50
2022-09-20T18:10:32.839Z,100841.66
2022-09-20T18:13:03.433Z,100843.31
2022-09-20T18:15:35.163Z,100838.31
2022-09-20T18:18:05.435Z,100833.75
2022-09-20T18:20:35.676Z,100836.94
2022-09-20T18:23:07.031Z,100830.97
2022-09-20T18:25:57.100Z,100830.50
2022-09-20T18:28:27.288Z,100821.38
2022-09-20T18:31:04.996Z,100824.88
2022-09-20T18:33:35.389Z,100832.03
2022-09-20T18:36:07.704Z,100818.91
2022-09-20T18:38:38.040Z,100823.22
2022-09-20T18:41:08.299Z,100833.66
2022-09-20T18:43:38.384Z,100824.03
2022-09-20T18:46:08.753Z,100827.88
2022-09-20T18:48:40.771Z,100827.06
2022-09-20T18:51:10.912Z,100823.59
2022-09-20T18:53:41.314Z,100830.94
2022-09-20T18:56:30.534Z,100822.66
2022-09-20T18:59:22.468Z,100824.00
2022-09-20T19:01:56.383Z,100830.06
2022-09-20T19:04:37.202Z,100829.22
2022-09-20T19:07:29.744Z,100822.88
2022-09-20T19:10:09.760Z,100821.78
2022-09-20T19:12:42.546Z,100812.13
2022-09-20T19:15:38.365Z,100826.00
2022-09-20T19:18:30.416Z,100821.00
2022-09-20T19:21:24.040Z,100827.31
2022-09-20T19:24:15.881Z,100824.03
2022-09-20T19:26:47.428Z,100821.53
2022-09-20T19:29:24.577Z,100820.91
2022-09-20T19:31:57.757Z,100821.91
2022-09-20T19:34:31.191Z,100824.75
2022-09-20T19:37:35.277Z,100832.91
2022-09-20T19:40:19.509Z,100826.94
2022-09-20T19:42:55.990Z,100829.13
2022-09-20T19:45:33.537Z,100823.97
2022-09-20T19:48:38.943Z,100825.31
2022-09-20T19:51:13.931Z,100822.34
2022-09-20T19:53:44.238Z,100820.06
2022-09-20T19:56:23.219Z,100816.94
2022-09-20T19:58:57.549Z,100822.13
2022-09-20T20:01:28.372Z,100820.16
2022-09-20T20:03:58.659Z,100820.53
2022-09-20T20:06:53.109Z,100819.84
2022-09-20T20:09:41.290Z,100813.72
2022-09-20T20:12:17.578Z,100818.03
2022-09-20T20:15:13.875Z,100815.56
2022-09-20T20:18:00.909Z,100807.09
2022-09-20T20:20:42.866Z,100815.09
2022-09-20T20:23:33.883Z,100803.63
2022-09-20T20:26:04.321Z,100808.94
2022-09-20T20:28:34.479Z,100804.78
2022-09-20T20:31:06.362Z,100809.63
2022-09-20T20:33:36.978Z,100809.97
2022-09-20T20:36:10.462Z,100809.97
2022-09-20T20:38:47.675Z,100815.28
2022-09-20T20:41:20.664Z,100815.28
2022-09-20T20:43:58.366Z,100818.97
2022-09-20T20:46:28.997Z,100814.97
2022-09-20T20:48:59.854Z,100813.50
2022-09-20T20:51:30.491Z,100813.00
2022-09-20T20:54:01.377Z,100815.19
2022-09-20T20:56:33.014Z,100821.66
2022-09-20T20:59:09.121Z,100830.00
2022-09-20T21:01:47.049Z,100825.84
2022-09-20T21:04:18.227Z,100828.66
2022-09-20T21:06:48.888Z,100826.00
2022-09-20T21:09:19.087Z,100822.22
2022-09-20T21:11:49.714Z,100834.03
2022-09-20T21:14:19.760Z,100837.66
2022-09-20T21:16:50.222Z,100836.84
2022-09-20T21:19:20.668Z,100832.84
2022-09-20T21:21:51.194Z,100830.09
2022-09-20T21:24:21.639Z,100833.41
2022-09-20T21:26:52.355Z,100830.91
2022-09-20T21:29:22.730Z,100834.59
2022-09-20T21:31:53.072Z,100836.06
2022-09-20T21:34:23.321Z,100837.41
2022-09-20T21:36:53.494Z,100830.97
2022-09-20T21:39:23.595Z,100835.47
2022-09-20T21:41:53.712Z,100838.28
2022-09-20T21:44:23.947Z,100840.28
2022-09-20T21:46:54.283Z,100839.44
2022-09-20T21:49:23.765Z,100828.16
2022-09-20T21:51:54.580Z,100828.47
2022-09-20T21:54:25.593Z,100841.94
2022-09-20T21:56:57.113Z,100848.25
2022-09-20T21:59:29.101Z,100852.75
2022-09-20T22:02:03.344Z,100864.34
2022-09-20T22:04:33.867Z,100854.72
2022-09-20T22:07:05.890Z,100853.41
2022-09-20T22:09:36.351Z,100860.69
2022-09-20T22:12:07.034Z,100865.00
2022-09-20T22:14:40.794Z,100860.69
2022-09-20T22:17:11.680Z,100864.84
2022-09-20T22:19:42.196Z,100867.66
2022-09-20T22:22:12.874Z,100874.63
2022-09-20T22:24:43.043Z,100873.97
2022-09-20T22:27:15.528Z,100863.84
2022-09-20T22:29:45.814Z,100870.00
2022-09-20T22:32:16.479Z,100864.69
2022-09-20T22:34:47.071Z,100868.97
2022-09-20T22:37:18.795Z,100865.19
2022-09-20T22:39:49.065Z,100869.31
2022-09-20T22:42:19.340Z,100875.31
2022-09-20T22:44:49.523Z,100867.00
2022-09-20T22:47:22.274Z,100864.00
2022-09-20T22:49:52.458Z,100863.53
2022-09-20T22:52:22.611Z,100859.69
2022-09-20T22:54:52.802Z,100854.53
2022-09-20T22:57:22.947Z,100862.50
2022-09-20T22:59:54.879Z,100855.69
2022-09-20T23:02:25.222Z,100859.31
2022-09-20T23:04:55.931Z,100865.94
2022-09-20T23:07:26.240Z,100850.31
2022-09-20T23:09:56.342Z,100838.38
2022-09-20T23:12:26.627Z,100843.50
2022-09-20T23:14:56.632Z,100842.16
2022-09-20T23:17:27.600Z,100846.28
2022-09-20T23:19:58.185Z,100849.72
2022-09-20T23:22:28.740Z,100845.88
2022-09-20T23:24:58.795Z,100843.19
2022-09-20T23:27:30.805Z,100837.81
2022-09-20T23:30:01.492Z,100857.03
2022-09-20T23:32:32.283Z,100832.91
2022-09-20T23:35:02.992Z,100833.69
2022-09-20T23:37:33.474Z,100846.56
2022-09-20T23:40:03.110Z,100842.47
2022-09-20T23:42:33.545Z,100841.56
2022-09-20T23:45:03.596Z,100832.72
2022-09-20T23:47:33.767Z,100826.31
2022-09-20T23:50:03.817Z,100821.56
2022-09-20T23:52:34.318Z,100830.16
2022-09-20T23:55:04.560Z,100837.69
2022-09-20T23:57:34.677Z,100834.78
